createdAt,value
2022-07-30T00:00:50.043Z,9.1
2022-07-30T00:02:50.500Z,8.9
2022-07-30T00:04:49.790Z,9.0
2022-07-30T00:06:50.192Z,9.0
2022-07-30T00:08:50.038Z,8.4
2022-07-30T00:10:50.357Z,9.0
2022-07-30T00:12:50.099Z,8.5
2022-07-30T00:14:49.991Z,8.3
2022-07-30T00:16:50.261Z,8.3
2022-07-30T00:18:51.718Z,8.3
2022-07-30T00:20:50.611Z,7.9
2022-07-30T00:22:50.371Z,8.3
2022-07-30T00:24:50.349Z,8.3
2022-07-30T00:26:50.457Z,8.1
2022-07-30T00:28:50.551Z,8.0
2022-07-30T00:30:56.399Z,7.9
2022-07-30T00:32:49.883Z,7.9
2022-07-30T00:34:50.318Z,7.2
2022-07-30T00:36:49.729Z,7.7
2022-07-30T00:38:49.723Z,7.4
2022-07-30T00:40:49.695Z,7.6
2022-07-30T00:42:50.633Z,7.6
2022-07-30T00:44:50.618Z,8.0
2022-07-30T00:46:50.106Z,8.0
2022-07-30T00:48:50.276Z,7.4
2022-07-30T00:50:50.394Z,7.3
2022-07-30T00:52:50.309Z,7.3
2022-07-30T00:54:50.105Z,8.0
2022-07-30T00:56:50.332Z,8.0
2022-07-30T00:58:50.186Z,7.4
2022-07-30T01:00:50.280Z,7.9
2022-07-30T01:02:50.410Z,7.9
2022-07-30T01:04:52.826Z,8.1
2022-07-30T01:06:50.020Z,8.1
2022-07-30T01:08:49.918Z,7.7
2022-07-30T01:10:50.677Z,7.9
2022-07-30T01:12:49.701Z,7.9
2022-07-30T01:14:50.652Z,8.5
2022-07-30T01:16:50.120Z,8.6
2022-07-30T01:18:50.379Z,9.1
2022-07-30T01:20:50.165Z,8.8
2022-07-30T01:22:50.120Z,8.6
2022-07-30T01:24:49.903Z,8.6
2022-07-30T01:26:50.011Z,8.9
2022-07-30T01:28:49.811Z,9.2
2022-07-30T01:30:50.244Z,9.2
2022-07-30T01:32:50.278Z,9.0
2022-07-30T01:34:50.609Z,9.0
2022-07-30T01:36:49.826Z,8.5
2022-07-30T01:38:50.620Z,9.0
2022-07-30T01:40:50.465Z,9.0
2022-07-30T01:42:50.388Z,9.8
2022-07-30T01:44:50.346Z,9.8
2022-07-30T01:46:50.506Z,9.6
2022-07-30T01:48:50.215Z,9.2
2022-07-30T01:50:50.537Z,9.0
2022-07-30T01:52:50.354Z,9.0
2022-07-30T01:54:50.264Z,9.5
2022-07-30T01:56:50.442Z,9.2
2022-07-30T01:58:50.679Z,10.5
2022-07-30T02:00:50.393Z,10.5
2022-07-30T02:02:50.666Z,10.5
2022-07-30T02:04:49.885Z,10.0
2022-07-30T02:06:50.174Z,10.1
2022-07-30T02:08:50.476Z,10.2
2022-07-30T02:10:50.258Z,10.2
2022-07-30T02:12:50.150Z,10.4
2022-07-30T02:14:50.326Z,10.3
2022-07-30T02:16:50.810Z,11.0
2022-07-30T02:18:50.258Z,11.0
2022-07-30T02:20:49.802Z,10.4
2022-07-30T02:22:49.864Z,10.4
2022-07-30T02:24:49.761Z,11.2
2022-07-30T02:26:49.955Z,11.7
2022-07-30T02:28:49.762Z,11.7
2022-07-30T02:30:49.706Z,18.9
2022-07-30T02:32:50.518Z,18.9
2022-07-30T02:34:49.883Z,22.5
2022-07-30T02:36:49.875Z,25.2
2022-07-30T02:38:49.925Z,25.2
2022-07-30T02:40:50.292Z,29.0
2022-07-30T02:42:50.327Z,29.0
2022-07-30T02:44:50.342Z,28.5
2022-07-30T02:46:50.788Z,28.2
2022-07-30T02:48:50.083Z,28.2
2022-07-30T02:50:49.970Z,27.9
2022-07-30T02:52:49.937Z,27.9
2022-07-30T02:54:49.704Z,27.1
2022-07-30T02:56:49.835Z,28.2
2022-07-30T02:58:50.463Z,28.2
2022-07-30T03:00:50.669Z,29.0
2022-07-30T03:02:50.020Z,29.0
2022-07-30T03:04:50.133Z,28.5
2022-07-30T03:06:50.376Z,30.1
2022-07-30T03:08:50.268Z,30.1
2022-07-30T03:10:50.178Z,30.5
2022-07-30T03:12:50.131Z,31.4
2022-07-30T03:14:50.112Z,31.4
2022-07-30T03:18:49.729Z,30.9
2022-07-30T03:20:50.554Z,30.9
2022-07-30T03:22:50.672Z,31.8
2022-07-30T03:24:50.584Z,29.2
2022-07-30T03:26:50.060Z,29.2
2022-07-30T03:28:50.144Z,30.1
2022-07-30T03:30:50.162Z,28.7
2022-07-30T03:32:50.039Z,29.1
2022-07-30T03:34:49.970Z,28.6
2022-07-30T03:36:50.137Z,28.0
2022-07-30T03:38:50.212Z,28.0
2022-07-30T03:40:50.090Z,27.4
2022-07-30T03:42:50.236Z,28.1
2022-07-30T03:44:50.119Z,26.7
2022-07-30T03:46:50.491Z,26.0
2022-07-30T03:48:49.916Z,25.9
2022-07-30T03:50:50.266Z,25.9
2022-07-30T03:52:50.108Z,25.4
2022-07-30T03:54:50.091Z,25.4
2022-07-30T03:56:50.166Z,25.7
2022-07-30T03:58:50.103Z,25.7
2022-07-30T04:00:49.915Z,24.6
2022-07-30T04:02:49.773Z,23.6
2022-07-30T04:04:50.175Z,24.0
2022-07-30T04:06:50.454Z,24.7
2022-07-30T04:08:50.444Z,24.7
2022-07-30T04:10:50.386Z,22.6
2022-07-30T04:12:50.342Z,22.6
2022-07-30T04:14:50.280Z,22.6
2022-07-30T04:16:50.663Z,22.1
2022-07-30T04:18:49.880Z,21.1
2022-07-30T04:20:49.720Z,21.1
2022-07-30T04:22:49.717Z,21.8
2022-07-30T04:24:49.732Z,21.8
2022-07-30T04:26:49.865Z,23.0
2022-07-30T04:28:50.642Z,23.4
2022-07-30T04:30:50.779Z,22.2
2022-07-30T04:32:49.776Z,22.8
2022-07-30T04:34:50.200Z,22.4
2022-07-30T04:36:50.363Z,22.4
2022-07-30T04:38:50.362Z,21.8
2022-07-30T04:40:50.372Z,21.8
2022-07-30T04:42:50.265Z,22.5
2022-07-30T04:44:50.168Z,23.4
2022-07-30T04:46:50.755Z,23.4
2022-07-30T04:48:50.171Z,23.0
2022-07-30T04:50:50.617Z,24.5
2022-07-30T04:52:49.804Z,23.7
2022-07-30T04:54:50.566Z,24.5
2022-07-30T04:56:54.228Z,24.5
2022-07-30T04:58:50.169Z,27.1
2022-07-30T05:00:50.199Z,23.5
2022-07-30T05:02:50.262Z,27.4
2022-07-30T05:04:49.917Z,27.4
2022-07-30T05:06:50.447Z,23.2
2022-07-30T05:08:50.304Z,22.4
2022-07-30T05:10:53.373Z,21.5
2022-07-30T05:12:50.592Z,22.5
2022-07-30T05:14:49.775Z,22.5
2022-07-30T05:16:50.029Z,22.5
2022-07-30T05:18:50.078Z,22.5
2022-07-30T05:20:50.188Z,21.3
2022-07-30T05:22:51.386Z,21.3
2022-07-30T05:24:50.294Z,20.2
2022-07-30T05:26:50.531Z,19.8
2022-07-30T05:28:57.188Z,19.7
2022-07-30T05:30:50.332Z,18.2
2022-07-30T05:32:50.551Z,18.0
2022-07-30T05:34:51.353Z,18.0
2022-07-30T05:36:50.505Z,18.5
2022-07-30T05:38:50.362Z,17.4
2022-07-30T05:40:49.707Z,17.4
2022-07-30T05:42:50.599Z,17.4
2022-07-30T05:44:49.701Z,17.7
2022-07-30T05:46:49.732Z,17.8
2022-07-30T05:48:50.773Z,18.4
2022-07-30T05:50:50.069Z,18.7
2022-07-30T05:52:49.741Z,18.7
2022-07-30T05:54:50.552Z,17.3
2022-07-30T05:56:49.818Z,16.7
2022-07-30T05:58:49.945Z,15.8
2022-07-30T06:00:49.847Z,15.8
2022-07-30T06:02:49.725Z,15.6
2022-07-30T06:04:50.286Z,14.8
2022-07-30T06:06:49.957Z,14.0
2022-07-30T06:08:49.806Z,14.0
2022-07-30T06:10:49.700Z,14.5
2022-07-30T06:12:49.937Z,14.5
2022-07-30T06:14:49.896Z,14.1
2022-07-30T06:16:49.989Z,13.9
2022-07-30T06:18:49.809Z,13.9
2022-07-30T06:20:49.890Z,12.4
2022-07-30T06:22:49.822Z,12.4
2022-07-30T06:24:49.780Z,10.8
2022-07-30T06:26:52.202Z,10.3
2022-07-30T06:28:49.870Z,9.8
2022-07-30T06:30:49.912Z,9.6
2022-07-30T06:32:50.153Z,9.6
2022-07-30T06:35:04.105Z,9.5
2022-07-30T06:36:50.525Z,9.5
2022-07-30T06:38:50.419Z,12.1
2022-07-30T06:40:50.486Z,12.1
2022-07-30T06:42:50.480Z,9.8
2022-07-30T06:44:50.449Z,8.8
2022-07-30T06:46:49.700Z,7.8
2022-07-30T06:48:50.577Z,8.1
2022-07-30T06:50:49.812Z,8.1
2022-07-30T06:52:49.672Z,7.2
2022-07-30T06:54:49.705Z,7.2
2022-07-30T06:56:49.900Z,5.7
2022-07-30T06:58:49.914Z,5.7
2022-07-30T07:00:49.815Z,5.9
2022-07-30T07:02:49.703Z,6.7
2022-07-30T07:04:50.105Z,6.3
2022-07-30T07:06:50.189Z,6.3
2022-07-30T07:08:50.149Z,6.3
2022-07-30T07:10:49.937Z,7.1
2022-07-30T07:12:49.949Z,9.1
2022-07-30T07:14:49.705Z,6.5
2022-07-30T07:16:50.076Z,8.1
2022-07-30T07:18:50.264Z,8.1
2022-07-30T07:20:50.400Z,6.2
2022-07-30T07:22:50.192Z,5.1
2022-07-30T07:24:50.331Z,6.2
2022-07-30T07:26:50.565Z,6.2
2022-07-30T07:28:50.536Z,5.5
2022-07-30T07:30:50.635Z,5.5
2022-07-30T07:32:49.785Z,5.4
2022-07-30T07:34:49.995Z,4.8
2022-07-30T07:36:50.255Z,4.5
2022-07-30T07:38:50.195Z,4.5
2022-07-30T07:40:49.998Z,3.8
2022-07-30T07:42:50.067Z,4.1
2022-07-30T07:44:49.918Z,4.2
2022-07-30T07:46:50.477Z,4.9
2022-07-30T07:48:50.680Z,4.9
2022-07-30T07:50:49.803Z,3.8
2022-07-30T07:52:49.841Z,3.6
2022-07-30T07:54:50.485Z,3.4
2022-07-30T07:56:49.883Z,3.4
2022-07-30T07:58:56.640Z,4.1
2022-07-30T08:00:50.681Z,3.2
2022-07-30T08:02:50.224Z,3.5
2022-07-30T08:04:50.136Z,3.5
2022-07-30T08:06:50.473Z,3.5
2022-07-30T08:08:50.451Z,3.5
2022-07-30T08:10:50.738Z,4.0
2022-07-30T08:12:49.675Z,4.3
2022-07-30T08:14:49.755Z,4.3
2022-07-30T08:16:50.006Z,4.3
2022-07-30T08:18:50.323Z,4.3
2022-07-30T08:20:50.267Z,4.3
2022-07-30T08:22:50.399Z,4.0
2022-07-30T08:24:50.359Z,3.7
2022-07-30T08:26:50.487Z,3.7
2022-07-30T08:28:54.661Z,3.5
2022-07-30T08:30:49.852Z,3.4
2022-07-30T08:32:50.029Z,3.7
2022-07-30T08:34:50.559Z,3.5
2022-07-30T08:36:49.958Z,3.5
2022-07-30T08:38:49.947Z,4.4
2022-07-30T08:40:50.027Z,3.5
2022-07-30T08:42:49.885Z,4.2
2022-07-30T08:44:49.971Z,3.7
2022-07-30T08:46:50.305Z,3.7
2022-07-30T08:50:50.163Z,4.1
2022-07-30T08:52:50.265Z,5.1
2022-07-30T08:54:50.225Z,5.8
2022-07-30T08:56:50.436Z,5.8
2022-07-30T08:58:50.305Z,5.8
2022-07-30T09:00:50.154Z,4.3
2022-07-30T09:02:50.375Z,4.5
2022-07-30T09:04:51.211Z,4.5
2022-07-30T09:06:50.339Z,4.3
2022-07-30T09:08:50.227Z,4.0
2022-07-30T09:10:53.701Z,4.0
2022-07-30T09:12:49.828Z,4.3
2022-07-30T09:14:50.612Z,4.3
2022-07-30T09:16:49.938Z,4.1
2022-07-30T09:18:49.966Z,3.8
2022-07-30T09:20:50.063Z,4.2
2022-07-30T09:22:49.877Z,4.1
2022-07-30T09:24:49.802Z,4.1
2022-07-30T09:26:50.189Z,4.2
2022-07-30T09:28:50.074Z,4.2
2022-07-30T09:30:50.020Z,4.5
2022-07-30T09:32:49.953Z,4.8
2022-07-30T09:34:50.277Z,4.8
2022-07-30T09:36:50.583Z,4.9
2022-07-30T09:38:50.520Z,4.2
2022-07-30T09:40:57.425Z,4.2
2022-07-30T09:42:49.848Z,4.2
2022-07-30T09:44:49.815Z,5.3
2022-07-30T09:46:50.079Z,4.4
2022-07-30T09:48:50.140Z,4.9
2022-07-30T09:50:50.403Z,4.0
2022-07-30T09:52:50.610Z,4.0
2022-07-30T09:54:52.572Z,4.7
2022-07-30T09:56:54.170Z,4.3
2022-07-30T09:58:51.580Z,4.8
2022-07-30T10:00:50.629Z,4.2
2022-07-30T10:02:50.273Z,4.2
2022-07-30T10:04:50.179Z,4.1
2022-07-30T10:06:50.411Z,4.4
2022-07-30T10:08:50.383Z,4.1
2022-07-30T10:10:51.131Z,4.1
2022-07-30T10:12:50.006Z,3.7
2022-07-30T10:14:49.956Z,3.7
2022-07-30T10:16:50.312Z,3.2
2022-07-30T10:18:50.213Z,3.9
2022-07-30T10:20:50.091Z,3.2
2022-07-30T10:22:50.750Z,3.2
2022-07-30T10:24:49.915Z,3.5
2022-07-30T10:26:50.232Z,3.6
2022-07-30T10:28:50.458Z,3.7
2022-07-30T10:30:51.264Z,3.4
2022-07-30T10:32:52.670Z,3.4
2022-07-30T10:34:50.509Z,3.8
2022-07-30T10:36:50.131Z,4.2
2022-07-30T10:38:53.095Z,3.3
2022-07-30T10:40:50.569Z,3.3
2022-07-30T10:42:50.373Z,3.3
2022-07-30T10:44:50.322Z,3.9
2022-07-30T10:46:49.997Z,3.9
2022-07-30T10:48:51.085Z,3.4
2022-07-30T10:50:50.000Z,3.4
2022-07-30T10:52:49.896Z,3.4
2022-07-30T10:54:51.354Z,3.0
2022-07-30T10:56:50.466Z,2.7
2022-07-30T10:58:53.038Z,2.7
2022-07-30T11:00:50.572Z,2.7
2022-07-30T11:02:50.943Z,3.8
2022-07-30T11:04:50.147Z,4.9
2022-07-30T11:06:50.540Z,4.9
2022-07-30T11:08:51.168Z,2.8
2022-07-30T11:10:50.069Z,3.1
2022-07-30T11:12:53.171Z,3.1
2022-07-30T11:14:50.349Z,3.7
2022-07-30T11:16:50.629Z,4.6
2022-07-30T11:19:07.092Z,4.6
2022-07-30T11:20:49.809Z,5.6
2022-07-30T11:22:51.353Z,4.8
2022-07-30T11:24:50.092Z,4.7
2022-07-30T11:26:50.528Z,4.7
2022-07-30T11:28:50.265Z,5.3
2022-07-30T11:30:50.168Z,5.3
2022-07-30T11:32:51.512Z,5.4
2022-07-30T11:34:51.063Z,4.6
2022-07-30T11:36:50.172Z,4.6
2022-07-30T11:38:49.961Z,4.2
2022-07-30T11:40:50.593Z,4.2
2022-07-30T11:42:50.323Z,4.1
2022-07-30T11:44:50.001Z,4.1
2022-07-30T11:46:49.971Z,4.1
2022-07-30T11:48:49.988Z,4.6
2022-07-30T11:50:49.855Z,4.6
2022-07-30T11:52:50.463Z,4.3
2022-07-30T11:54:50.256Z,3.9
2022-07-30T11:56:50.324Z,3.6
2022-07-30T11:58:49.956Z,3.4
2022-07-30T12:00:49.947Z,3.4
2022-07-30T12:04:49.698Z,3.5
2022-07-30T12:06:50.475Z,3.5
2022-07-30T12:08:58.414Z,3.5
2022-07-30T12:10:49.916Z,3.5
2022-07-30T12:12:49.966Z,3.4
2022-07-30T12:14:49.908Z,3.2
2022-07-30T12:16:50.041Z,3.2
2022-07-30T12:18:49.836Z,3.5
2022-07-30T12:20:49.721Z,3.3
2022-07-30T12:22:50.395Z,3.2
2022-07-30T12:24:50.188Z,3.0
2022-07-30T12:26:50.309Z,3.0
2022-07-30T12:28:50.262Z,3.3
2022-07-30T12:30:50.035Z,2.8
2022-07-30T12:32:49.971Z,2.8
2022-07-30T12:34:50.273Z,2.8
2022-07-30T12:36:50.528Z,3.0
2022-07-30T12:38:50.304Z,3.0
2022-07-30T12:40:50.028Z,2.7
2022-07-30T12:42:49.786Z,2.7
2022-07-30T12:44:50.378Z,3.0
2022-07-30T12:46:50.398Z,3.0
2022-07-30T12:48:50.043Z,3.2
2022-07-30T12:50:49.976Z,3.1
2022-07-30T12:52:50.634Z,2.7
2022-07-30T12:54:50.117Z,2.9
2022-07-30T12:56:50.218Z,2.9
2022-07-30T12:58:50.618Z,2.9
2022-07-30T13:00:50.468Z,2.7
2022-07-30T13:02:50.148Z,2.8
2022-07-30T13:05:10.488Z,2.8
2022-07-30T13:06:49.759Z,2.8
2022-07-30T13:08:50.377Z,2.5
2022-07-30T13:10:50.234Z,3.1
2022-07-30T13:12:50.083Z,2.6
2022-07-30T13:14:49.893Z,2.6
2022-07-30T13:16:49.696Z,2.3
2022-07-30T13:18:50.503Z,2.3
2022-07-30T13:20:50.127Z,2.8
2022-07-30T13:22:49.953Z,2.4
2022-07-30T13:24:50.587Z,2.4
2022-07-30T13:26:51.014Z,2.4
2022-07-30T13:28:50.632Z,2.4
2022-07-30T13:30:50.261Z,2.6
2022-07-30T13:32:49.968Z,2.6
2022-07-30T13:34:49.996Z,2.6
2022-07-30T13:36:50.016Z,2.7
2022-07-30T13:38:52.601Z,2.5
2022-07-30T13:40:50.299Z,2.3
2022-07-30T13:42:49.959Z,2.3
2022-07-30T13:44:50.581Z,2.2
2022-07-30T13:46:50.644Z,2.2
2022-07-30T13:48:50.339Z,2.2
2022-07-30T13:50:50.060Z,2.4
2022-07-30T13:52:50.678Z,2.4
2022-07-30T13:54:50.581Z,2.6
2022-07-30T13:56:50.979Z,2.4
2022-07-30T13:58:50.555Z,2.3
2022-07-30T14:00:50.540Z,2.3
2022-07-30T14:02:50.578Z,2.8
2022-07-30T14:04:49.915Z,2.8
2022-07-30T14:06:49.979Z,2.7
2022-07-30T14:08:49.747Z,2.8
2022-07-30T14:10:49.788Z,2.8
2022-07-30T14:12:49.650Z,2.7
2022-07-30T14:14:50.610Z,2.7
2022-07-30T14:16:54.031Z,2.7
2022-07-30T14:18:49.963Z,2.6
2022-07-30T14:20:49.829Z,2.6
2022-07-30T14:22:50.406Z,2.6
2022-07-30T14:24:50.098Z,2.6
2022-07-30T14:26:57.887Z,2.7
2022-07-30T14:28:50.336Z,2.4
2022-07-30T14:30:49.899Z,2.6
2022-07-30T14:32:59.395Z,2.6
2022-07-30T14:34:50.105Z,2.6
2022-07-30T14:36:50.001Z,2.6
2022-07-30T14:38:56.385Z,2.5
2022-07-30T14:40:50.294Z,2.5
2022-07-30T14:42:50.059Z,2.3
2022-07-30T14:44:55.342Z,2.3
2022-07-30T14:46:59.846Z,2.7
2022-07-30T14:48:50.623Z,2.5
2022-07-30T14:51:17.826Z,2.5
2022-07-30T14:52:50.422Z,2.9
2022-07-30T14:54:50.009Z,2.6
2022-07-30T14:56:56.349Z,2.5
2022-07-30T14:58:50.151Z,2.6
2022-07-30T15:00:49.878Z,2.6
2022-07-30T15:02:50.408Z,2.6
2022-07-30T15:04:49.873Z,2.8
2022-07-30T15:06:51.309Z,2.6
2022-07-30T15:08:50.238Z,2.6
2022-07-30T15:10:49.899Z,2.8
2022-07-30T15:12:51.071Z,3.4
2022-07-30T15:14:49.758Z,3.0
2022-07-30T15:16:50.561Z,3.2
2022-07-30T15:18:50.225Z,3.2
2022-07-30T15:20:49.939Z,3.0
2022-07-30T15:22:49.865Z,3.3
2022-07-30T15:24:50.511Z,3.0
2022-07-30T15:26:50.438Z,3.0
2022-07-30T15:28:50.124Z,3.6
2022-07-30T15:30:49.690Z,3.2
2022-07-30T15:32:50.374Z,3.8
2022-07-30T15:34:50.280Z,3.8
2022-07-30T15:36:50.186Z,3.5
2022-07-30T15:38:49.801Z,3.3
2022-07-30T15:40:49.921Z,3.3
2022-07-30T15:42:50.600Z,3.5
2022-07-30T15:45:17.027Z,3.3
2022-07-30T15:46:49.706Z,3.3
2022-07-30T15:48:50.701Z,3.5
2022-07-30T15:50:50.418Z,3.5
2022-07-30T15:52:50.259Z,3.7
2022-07-30T15:54:50.425Z,3.2
2022-07-30T15:56:50.572Z,3.2
2022-07-30T15:58:50.478Z,3.1
2022-07-30T16:00:50.591Z,3.1
2022-07-30T16:02:49.880Z,2.8
2022-07-30T16:04:52.849Z,2.9
2022-07-30T16:06:50.197Z,2.7
2022-07-30T16:08:50.206Z,2.7
2022-07-30T16:10:50.089Z,2.6
2022-07-30T16:12:49.859Z,2.8
2022-07-30T16:14:50.620Z,2.6
2022-07-30T16:16:49.873Z,2.6
2022-07-30T16:18:49.718Z,2.4
2022-07-30T16:20:49.673Z,2.7
2022-07-30T16:22:50.413Z,2.5
2022-07-30T16:24:50.157Z,2.5
2022-07-30T16:26:50.180Z,2.5
2022-07-30T16:28:49.754Z,2.4
2022-07-30T16:30:51.820Z,2.6
2022-07-30T16:32:49.692Z,3.1
2022-07-30T16:34:49.905Z,3.1
2022-07-30T16:36:50.030Z,2.8
2022-07-30T16:38:49.693Z,3.0
2022-07-30T16:40:50.268Z,3.0
2022-07-30T16:42:50.014Z,2.9
2022-07-30T16:44:49.821Z,2.9
2022-07-30T16:46:49.873Z,2.9
2022-07-30T16:48:50.843Z,2.9
2022-07-30T16:50:49.775Z,3.2
2022-07-30T16:52:50.495Z,3.1
2022-07-30T16:54:50.104Z,3.1
2022-07-30T16:56:49.901Z,3.3
2022-07-30T16:58:50.495Z,3.3
2022-07-30T17:00:50.343Z,2.9
2022-07-30T17:02:50.309Z,3.8
2022-07-30T17:04:50.525Z,3.2
2022-07-30T17:06:50.462Z,3.2
2022-07-30T17:08:51.342Z,3.0
2022-07-30T17:10:50.008Z,3.1
2022-07-30T17:12:51.544Z,3.0
2022-07-30T17:14:50.659Z,3.3
2022-07-30T17:16:50.061Z,3.3
2022-07-30T17:18:50.012Z,3.2
2022-07-30T17:20:50.633Z,2.7
2022-07-30T17:22:50.462Z,3.0
2022-07-30T17:24:50.187Z,2.8
2022-07-30T17:26:50.195Z,2.8
2022-07-30T17:28:49.802Z,3.2
2022-07-30T17:30:50.557Z,3.1
2022-07-30T17:32:50.187Z,3.0
2022-07-30T17:34:50.609Z,3.0
2022-07-30T17:36:53.205Z,3.0
2022-07-30T17:38:49.957Z,3.0
2022-07-30T17:40:50.575Z,3.1
2022-07-30T17:42:50.380Z,3.1
2022-07-30T17:44:49.921Z,3.1
2022-07-30T17:46:49.769Z,3.2
2022-07-30T17:48:50.522Z,3.4
2022-07-30T17:50:50.240Z,3.5
2022-07-30T17:52:50.046Z,3.5
2022-07-30T17:54:50.639Z,3.1
2022-07-30T17:56:49.683Z,3.1
2022-07-30T17:58:51.450Z,2.9
2022-07-30T18:00:50.611Z,3.4
2022-07-30T18:02:50.457Z,3.4
2022-07-30T18:04:56.648Z,2.7
2022-07-30T18:06:49.736Z,3.0
2022-07-30T18:08:50.463Z,3.1
2022-07-30T18:10:50.117Z,3.1
2022-07-30T18:12:49.957Z,3.1
2022-07-30T18:18:50.506Z,2.9
2022-07-30T18:20:50.090Z,2.9
2022-07-30T18:22:51.978Z,3.2
2022-07-30T18:24:53.234Z,2.7
2022-07-30T18:26:49.825Z,2.7
2022-07-30T18:28:49.714Z,3.0
2022-07-30T18:30:49.698Z,3.0
2022-07-30T18:32:50.634Z,2.9
2022-07-30T18:34:50.650Z,2.9
2022-07-30T18:36:49.907Z,3.1
2022-07-30T18:38:51.326Z,3.3
2022-07-30T18:40:50.174Z,3.3
2022-07-30T18:42:50.231Z,3.1
2022-07-30T18:44:50.324Z,3.1
2022-07-30T18:46:50.514Z,3.1
2022-07-30T18:48:50.599Z,3.0
2022-07-30T18:50:49.973Z,3.0
2022-07-30T18:52:50.659Z,3.0
2022-07-30T18:54:50.375Z,3.0
2022-07-30T18:56:50.380Z,3.3
2022-07-30T18:58:50.234Z,3.3
2022-07-30T19:00:50.383Z,3.4
2022-07-30T19:02:50.659Z,3.2
2022-07-30T19:04:50.035Z,3.3
2022-07-30T19:06:50.044Z,3.4
2022-07-30T19:08:49.951Z,3.4
2022-07-30T19:10:49.982Z,3.3
2022-07-30T19:12:49.851Z,3.7
2022-07-30T19:14:49.671Z,3.8
2022-07-30T19:16:51.002Z,3.8
2022-07-30T19:18:49.687Z,4.1
2022-07-30T19:20:50.619Z,3.9
2022-07-30T19:22:50.510Z,3.8
2022-07-30T19:24:50.519Z,4.0
2022-07-30T19:26:50.627Z,3.6
2022-07-30T19:28:50.583Z,3.6
2022-07-30T19:30:50.450Z,3.6
2022-07-30T19:32:50.405Z,3.4
2022-07-30T19:34:49.987Z,3.4
2022-07-30T19:36:50.396Z,3.4
2022-07-30T19:38:50.444Z,3.9
2022-07-30T19:40:50.376Z,4.0
2022-07-30T19:42:56.655Z,4.2
2022-07-30T19:44:50.622Z,4.3
2022-07-30T19:46:51.832Z,4.1
2022-07-30T19:48:50.818Z,4.2
2022-07-30T19:50:50.193Z,4.2
2022-07-30T19:52:51.861Z,4.2
2022-07-30T19:54:49.891Z,4.2
2022-07-30T19:56:50.116Z,4.2
2022-07-30T19:58:49.979Z,4.3
2022-07-30T20:00:50.551Z,4.1
2022-07-30T20:02:50.866Z,4.3
2022-07-30T20:04:51.527Z,4.6
2022-07-30T20:06:50.646Z,4.6
2022-07-30T20:08:52.578Z,4.6
2022-07-30T20:10:50.468Z,4.8
2022-07-30T20:12:50.426Z,5.2
2022-07-30T20:14:50.509Z,5.3
2022-07-30T20:16:50.865Z,5.2
2022-07-30T20:18:52.221Z,5.2
2022-07-30T20:20:51.121Z,4.9
2022-07-30T20:22:50.029Z,5.3
2022-07-30T20:24:50.534Z,5.2
2022-07-30T20:26:49.964Z,5.2
2022-07-30T20:28:52.905Z,5.2
2022-07-30T20:30:50.069Z,5.2
2022-07-30T20:32:50.082Z,5.5
2022-07-30T20:34:50.473Z,5.4
2022-07-30T20:36:50.547Z,5.4
2022-07-30T20:38:51.245Z,5.8
2022-07-30T20:40:50.822Z,5.6
2022-07-30T20:42:50.667Z,5.9
2022-07-30T20:44:51.070Z,5.9
2022-07-30T20:46:50.314Z,6.3
2022-07-30T20:48:51.185Z,5.6
2022-07-30T20:50:49.720Z,6.3
2022-07-30T20:52:51.035Z,6.4
2022-07-30T20:54:49.721Z,6.4
2022-07-30T20:56:50.188Z,5.6
2022-07-30T20:58:52.300Z,5.6
2022-07-30T21:00:51.039Z,5.7
2022-07-30T21:02:50.010Z,6.7
2022-07-30T21:04:50.410Z,6.7
2022-07-30T21:06:50.674Z,6.3
2022-07-30T21:08:50.876Z,7.1
2022-07-30T21:10:49.932Z,7.2
2022-07-30T21:12:57.208Z,6.9
2022-07-30T21:14:50.417Z,7.1
2022-07-30T21:16:56.092Z,7.1
2022-07-30T21:18:50.960Z,6.7
2022-07-30T21:20:50.098Z,6.1
2022-07-30T21:22:49.919Z,6.1
2022-07-30T21:24:49.982Z,6.1
2022-07-30T21:26:50.193Z,5.7
2022-07-30T21:28:52.270Z,6.5
2022-07-30T21:30:49.749Z,6.0
2022-07-30T21:32:50.870Z,6.5
2022-07-30T21:34:50.310Z,6.5
2022-07-30T21:36:49.860Z,6.8
2022-07-30T21:38:50.014Z,7.1
2022-07-30T21:40:50.185Z,6.8
2022-07-30T21:42:50.318Z,7.0
2022-07-30T21:44:52.622Z,7.0
2022-07-30T21:46:49.871Z,6.9
2022-07-30T21:48:56.621Z,6.7
2022-07-30T21:50:50.564Z,7.5
2022-07-30T21:52:51.595Z,7.3
2022-07-30T21:54:50.593Z,7.3
2022-07-30T21:56:49.782Z,7.2
2022-07-30T21:58:51.349Z,7.4
2022-07-30T22:00:50.224Z,7.7
2022-07-30T22:02:54.062Z,7.7
2022-07-30T22:07:00.607Z,7.7
2022-07-30T22:08:49.963Z,7.2
2022-07-30T22:10:50.927Z,7.2
2022-07-30T22:12:51.224Z,7.0
2022-07-30T22:14:50.636Z,7.2
2022-07-30T22:16:50.099Z,7.4
2022-07-30T22:18:49.828Z,7.4
2022-07-30T22:20:50.134Z,7.4
2022-07-30T22:22:51.226Z,7.4
2022-07-30T22:24:50.309Z,7.5
2022-07-30T22:26:51.184Z,7.9
2022-07-30T22:28:52.756Z,8.1
2022-07-30T22:30:50.435Z,8.1
2022-07-30T22:32:50.320Z,7.5
2022-07-30T22:34:50.321Z,7.5
2022-07-30T22:36:51.557Z,8.2
2022-07-30T22:38:59.411Z,8.8
2022-07-30T22:40:49.907Z,8.8
2022-07-30T22:42:50.379Z,8.4
2022-07-30T22:44:50.160Z,8.4
2022-07-30T22:46:56.617Z,9.3
2022-07-30T22:48:51.361Z,9.0
2022-07-30T22:50:53.321Z,8.4
2022-07-30T22:53:08.153Z,8.4
2022-07-30T22:54:51.183Z,8.5
2022-07-30T22:56:50.390Z,8.0
2022-07-30T22:58:50.001Z,8.1
2022-07-30T23:00:50.164Z,7.7
2022-07-30T23:02:50.158Z,7.7
2022-07-30T23:04:51.090Z,7.9
2022-07-30T23:06:50.421Z,8.2
2022-07-30T23:08:50.171Z,7.8
2022-07-30T23:10:50.014Z,7.8
2022-07-30T23:12:50.158Z,7.9
2022-07-30T23:14:50.659Z,8.1
2022-07-30T23:16:50.643Z,8.3
2022-07-30T23:18:50.667Z,8.3
2022-07-30T23:20:50.608Z,8.1
2022-07-30T23:22:50.456Z,8.1
2022-07-30T23:24:50.492Z,8.1
2022-07-30T23:26:59.743Z,8.3
2022-07-30T23:28:50.643Z,8.0
2022-07-30T23:30:50.550Z,8.0
2022-07-30T23:32:51.912Z,8.0
2022-07-30T23:34:49.710Z,8.1
2022-07-30T23:36:50.215Z,8.4
2022-07-30T23:38:50.229Z,8.5
2022-07-30T23:40:50.041Z,8.5
2022-07-30T23:42:50.184Z,8.4
2022-07-30T23:44:49.987Z,9.1
2022-07-30T23:46:50.096Z,9.0
2022-07-30T23:48:50.184Z,9.0
2022-07-30T23:50:50.307Z,8.8
2022-07-30T23:52:50.337Z,8.8
2022-07-30T23:54:50.425Z,8.8
2022-07-30T23:56:49.713Z,9.1
2022-07-30T23:58:51.011Z,9.1
